Time;durP1;ratioP1;P1;durP2;ratioP2;P2;SDS_P1;SDS_P2;PMS_P1;PMS_P2;Temp;Humidity;BMP_temperature;BMP_pressure;BME280_temperature;BME280_humidity;BME280_pressure;Samples;Min_cycle;Max_cycle;Signal;HPM_P1;HPM_P2
2023/03/03 00:01:51;;;;;;;167.90;65.50;;;;;;;-3.13;100.00;98249.98;52418;1267;1059195;-77
2023/03/03 00:04:17;;;;;;;140.90;64.20;;;;;;;-3.16;99.97;98247.86;52504;1260;1016311;-77
2023/03/03 00:06:44;;;;;;;146.70;65.80;;;;;;;-3.24;100.00;98246.18;52376;1254;1149967;-77
2023/03/03 00:09:11;;;;;;;153.70;69.40;;;;;;;-3.27;100.00;98245.06;52440;1260;1016381;-76
2023/03/03 00:11:38;;;;;;;144.60;62.60;;;;;;;-3.32;100.00;98240.17;52511;1259;1068877;-76
2023/03/03 00:14:16;;;;;;;145.00;62.10;;;;;;;-3.35;100.00;98241.76;52479;1258;1016134;-77
2023/03/03 00:16:43;;;;;;;139.60;58.50;;;;;;;-3.37;100.00;98240.55;52375;1260;1073105;-77
2023/03/03 00:19:17;;;;;;;156.60;61.80;;;;;;;-3.35;98.88;98241.80;52475;1258;1016140;-77
2023/03/03 00:21:45;;;;;;;164.10;70.90;;;;;;;-3.42;99.25;98240.05;52491;1260;1043019;-76
2023/03/03 00:24:26;;;;;;;170.90;73.80;;;;;;;-3.43;100.00;98240.08;52625;1256;1018002;-77
2023/03/03 00:26:54;;;;;;;154.70;67.60;;;;;;;-3.40;100.00;98235.27;52405;1260;1057028;-77
2023/03/03 00:29:29;;;;;;;147.10;68.00;;;;;;;-3.41;100.00;98236.11;52543;1257;1016379;-77
2023/03/03 00:32:07;;;;;;;147.80;63.70;;;;;;;-3.46;99.76;98237.75;52552;1259;1072600;-76
2023/03/03 00:34:34;;;;;;;155.50;68.40;;;;;;;-3.51;97.98;98238.77;52582;1257;1064113;-77
2023/03/03 00:37:01;;;;;;;151.40;65.60;;;;;;;-3.63;98.19;98233.86;52512;1256;1015962;-77
2023/03/03 00:39:34;;;;;;;146.10;65.30;;;;;;;-3.68;100.00;98234.58;52544;1257;1071277;-77
2023/03/03 00:42:04;;;;;;;142.10;60.80;;;;;;;-3.68;100.00;98232.29;52525;1257;1069677;-76
2023/03/03 00:44:34;;;;;;;161.90;70.10;;;;;;;-3.71;100.00;98231.23;52485;1260;1017964;-77
2023/03/03 00:47:22;;;;;;;159.00;70.30;;;;;;;-3.71;100.00;98229.45;52403;1260;1018476;-77
2023/03/03 00:49:49;;;;;;;155.70;66.40;;;;;;;-3.71;100.00;98224.85;52516;1257;1061670;-77
2023/03/03 00:52:16;;;;;;;158.90;73.80;;;;;;;-3.74;100.00;98220.33;52539;1254;1016415;-76
2023/03/03 00:54:43;;;;;;;143.20;67.00;;;;;;;-3.76;100.00;98220.90;52560;1254;1071348;-76
2023/03/03 00:57:11;;;;;;;144.70;68.80;;;;;;;-3.77;100.00;98219.79;52479;1254;1015941;-77
2023/03/03 00:59:38;;;;;;;147.30;63.90;;;;;;;-3.72;100.00;98220.06;52542;1257;1051243;-76
2023/03/03 01:02:05;;;;;;;142.40;58.60;;;;;;;-3.73;100.00;98218.02;52423;1267;1018527;-76
2023/03/03 01:04:31;;;;;;;133.40;55.60;;;;;;;-3.77;100.00;98211.98;52493;1260;1061237;-76
2023/03/03 01:06:58;;;;;;;146.00;65.50;;;;;;;-3.80;100.00;98213.56;52455;1260;1016084;-76
2023/03/03 01:09:25;;;;;;;138.20;63.80;;;;;;;-3.80;100.00;98211.19;52446;1257;1072069;-77
2023/03/03 01:11:51;;;;;;;135.70;57.80;;;;;;;-3.78;100.00;98207.15;52469;1259;1015644;-76
2023/03/03 01:14:18;;;;;;;140.80;61.00;;;;;;;-3.77;100.00;98207.20;52464;1264;1069020;-77
2023/03/03 01:16:44;;;;;;;129.70;60.40;;;;;;;-3.72;100.00;98203.45;52435;1255;1018855;-76
2023/03/03 01:19:11;;;;;;;140.60;65.20;;;;;;;-3.68;100.00;98200.71;52390;1266;1070878;-76
2023/03/03 01:21:38;;;;;;;139.60;61.00;;;;;;;-3.68;100.00;98198.20;52436;1259;1015932;-76
2023/03/03 01:24:05;;;;;;;139.40;60.10;;;;;;;-3.69;100.00;98198.86;52546;1257;1052824;-76
2023/03/03 01:26:32;;;;;;;145.60;61.50;;;;;;;-3.70;100.00;98194.04;52547;1257;1016075;-77
2023/03/03 01:28:58;;;;;;;130.60;58.00;;;;;;;-3.67;100.00;98190.63;52430;1255;1058505;-77
2023/03/03 01:31:25;;;;;;;137.90;62.00;;;;;;;-3.67;100.00;98194.70;52500;1254;1015716;-77
2023/03/03 01:33:52;;;;;;;132.40;58.20;;;;;;;-3.76;100.00;98193.20;52441;1260;1075155;-77
2023/03/03 01:36:23;;;;;;;131.60;53.10;;;;;;;-3.76;100.00;98193.13;52470;1257;1016203;-76
2023/03/03 01:38:50;;;;;;;120.10;52.50;;;;;;;-3.73;100.00;98192.31;52550;1259;1069497;-76
2023/03/03 01:41:17;;;;;;;119.90;51.00;;;;;;;-3.81;100.00;98192.16;52523;1257;1016362;-76
2023/03/03 01:43:45;;;;;;;115.50;52.40;;;;;;;-3.79;100.00;98190.06;52556;1258;1069867;-77
2023/03/03 01:46:45;;;;;;;136.70;57.10;;;;;;;-3.80;100.00;98188.67;52532;1256;1015767;-77
2023/03/03 01:49:14;;;;;;;123.20;57.40;;;;;;;-3.84;100.00;98182.05;52545;1257;1042612;-77
2023/03/03 01:51:49;;;;;;;123.60;57.40;;;;;;;-3.91;100.00;98182.79;52560;1254;1015496;-77
2023/03/03 01:54:23;;;;;;;131.10;57.50;;;;;;;-3.90;100.00;98182.75;52551;1257;1043036;-77
2023/03/03 01:56:49;;;;;;;122.10;54.90;;;;;;;-3.87;100.00;98185.45;52434;1260;1051199;-76
2023/03/03 01:59:21;;;;;;;102.20;46.90;;;;;;;-3.86;100.00;98182.02;52523;1266;1016302;-77
2023/03/03 02:01:48;;;;;;;115.50;52.60;;;;;;;-3.90;100.00;98185.55;52426;1255;1058250;-77
2023/03/03 02:04:15;;;;;;;125.50;59.70;;;;;;;-4.02;100.00;98182.52;52380;1255;1016489;-77
2023/03/03 02:06:49;;;;;;;129.50;58.00;;;;;;;-4.03;100.00;98183.92;52434;1261;1075244;-76
2023/03/03 02:09:26;;;;;;;125.30;50.90;;;;;;;-4.06;100.00;98185.34;52431;1260;1073109;-77
2023/03/03 02:11:55;;;;;;;122.90;53.40;;;;;;;-4.07;100.00;98191.65;52450;1255;1064763;-77
2023/03/03 02:14:23;;;;;;;115.30;47.90;;;;;;;-4.15;100.00;98192.02;52527;1254;1016596;-76
2023/03/03 02:16:50;;;;;;;98.20;42.70;;;;;;;-4.16;100.00;98193.40;52487;1260;1018735;-76
2023/03/03 02:19:26;;;;;;;124.70;54.40;;;;;;;-4.16;100.00;98187.45;52436;1256;1015987;-77
2023/03/03 02:21:53;;;;;;;113.70;49.30;;;;;;;-4.13;100.00;98187.20;52459;1254;1060942;-76
2023/03/03 02:24:52;;;;;;;115.60;54.50;;;;;;;-4.12;100.00;98190.70;52469;1260;1015957;-76
2023/03/03 02:27:19;;;;;;;114.80;51.30;;;;;;;-4.17;100.00;98186.98;52581;1263;1070778;-76
2023/03/03 02:29:45;;;;;;;115.30;48.00;;;;;;;-4.16;100.00;98192.05;52405;1265;1016814;-77
2023/03/03 02:32:12;;;;;;;132.90;57.00;;;;;;;-4.21;100.00;98190.46;52609;1257;1051934;-77
2023/03/03 02:34:47;;;;;;;121.00;50.30;;;;;;;-4.24;100.00;98189.90;52610;1254;1019227;-77
2023/03/03 02:37:13;;;;;;;130.60;57.90;;;;;;;-4.22;100.00;98191.63;52509;1253;1060808;-76
2023/03/03 02:39:40;;;;;;;125.50;55.60;;;;;;;-4.27;100.00;98189.05;52651;1254;1018540;-76
2023/03/03 02:42:11;;;;;;;116.20;51.40;;;;;;;-4.27;100.00;98185.86;52442;1261;1074996;-76
2023/03/03 02:44:38;;;;;;;117.10;51.50;;;;;;;-4.24;100.00;98181.63;52716;1254;1075557;-76
2023/03/03 02:47:04;;;;;;;123.00;53.30;;;;;;;-4.27;100.00;98179.92;52575;1257;1015925;-76
2023/03/03 02:49:32;;;;;;;125.40;55.90;;;;;;;-4.32;100.00;98182.58;52490;1254;1072414;-77
2023/03/03 02:52:01;;;;;;;118.40;54.70;;;;;;;-4.38;100.00;98182.80;52449;1254;1016480;-77
2023/03/03 02:54:31;;;;;;;128.70;55.70;;;;;;;-4.40;100.00;98188.07;52543;1257;1070142;-77
2023/03/03 02:56:58;;;;;;;118.60;51.60;;;;;;;-4.37;100.00;98187.95;52453;1254;1073776;-77
2023/03/03 02:59:25;;;;;;;117.80;52.40;;;;;;;-4.34;100.00;98187.92;52549;1258;1017837;-77
2023/03/03 03:01:52;;;;;;;104.50;46.00;;;;;;;-4.37;100.00;98184.56;52521;1257;1051443;-76
2023/03/03 03:04:21;;;;;;;109.80;49.20;;;;;;;-4.43;100.00;98182.86;52479;1257;1018751;-77
2023/03/03 03:06:48;;;;;;;106.30;43.50;;;;;;;-4.37;100.00;98178.42;52527;1254;1058570;-77
2023/03/03 03:09:14;;;;;;;98.10;44.60;;;;;;;-4.33;100.00;98180.20;52534;1254;1016294;-77
2023/03/03 03:11:41;;;;;;;117.50;49.20;;;;;;;-4.39;100.00;98178.10;52423;1254;1073558;-77
2023/03/03 03:14:09;;;;;;;114.90;53.60;;;;;;;-4.46;100.00;98177.52;52470;1258;1016225;-76
2023/03/03 03:16:36;;;;;;;125.90;52.40;;;;;;;-4.47;100.00;98176.80;52402;1260;1069499;-76
2023/03/03 03:19:03;;;;;;;107.30;48.30;;;;;;;-4.47;100.00;98178.98;52456;1254;1016475;-76
2023/03/03 03:21:29;;;;;;;113.60;48.50;;;;;;;-4.48;100.00;98178.11;52401;1254;1073009;-77
2023/03/03 03:23:56;;;;;;;107.60;46.10;;;;;;;-4.51;100.00;98179.60;52458;1260;1015836;-77
2023/03/03 03:26:23;;;;;;;114.60;46.70;;;;;;;-4.56;100.00;98176.19;52499;1254;1053993;-76
2023/03/03 03:28:50;;;;;;;102.70;47.00;;;;;;;-4.57;100.00;98176.20;52523;1257;1016485;-76
2023/03/03 03:31:17;;;;;;;105.70;48.20;;;;;;;-4.56;100.00;98173.70;52557;1254;1061287;-77
2023/03/03 03:33:44;;;;;;;112.70;45.20;;;;;;;-4.56;100.00;98174.67;52606;1254;1017387;-77
2023/03/03 03:36:10;;;;;;;102.70;48.10;;;;;;;-4.59;100.00;98176.19;52547;1257;1073223;-76
2023/03/03 03:38:37;;;;;;;107.80;48.30;;;;;;;-4.64;100.00;98172.39;52504;1253;1016451;-77
2023/03/03 03:41:04;;;;;;;118.20;48.90;;;;;;;-4.61;100.00;98176.44;52559;1254;1072499;-76
2023/03/03 03:43:31;;;;;;;99.60;44.50;;;;;;;-4.61;100.00;98180.77;52544;1257;1016353;-76
2023/03/03 03:45:58;;;;;;;82.30;38.30;;;;;;;-4.61;100.00;98178.08;52543;1256;1073214;-76
2023/03/03 03:48:24;;;;;;;92.30;38.80;;;;;;;-4.63;100.00;98174.84;52518;1257;1018939;-76
2023/03/03 03:50:51;;;;;;;101.20;42.20;;;;;;;-4.62;100.00;98172.35;52489;1257;1052873;-76
2023/03/03 03:53:18;;;;;;;96.40;41.30;;;;;;;-4.55;100.00;98173.71;52603;1257;1018569;-76
2023/03/03 03:55:45;;;;;;;78.90;36.70;;;;;;;-4.55;100.00;98175.27;52556;1253;1061196;-76
2023/03/03 03:58:13;;;;;;;77.80;36.80;;;;;;;-4.54;100.00;98171.90;52533;1256;1019428;-77
2023/03/03 04:00:41;;;;;;;91.40;39.60;;;;;;;-4.54;100.00;98171.00;52513;1256;1072132;-76
2023/03/03 04:03:08;;;;;;;88.10;41.40;;;;;;;-4.52;100.00;98168.89;52541;1254;1015425;-77
2023/03/03 04:05:35;;;;;;;97.60;42.70;;;;;;;-4.54;100.00;98167.38;52434;1254;1072723;-76
2023/03/03 04:08:01;;;;;;;94.90;41.30;;;;;;;-4.57;100.00;98166.11;52457;1257;1016370;-76
2023/03/03 04:10:28;;;;;;;101.40;43.70;;;;;;;-4.64;100.00;98166.57;52406;1257;1070996;-76
2023/03/03 04:12:56;;;;;;;90.10;42.70;;;;;;;-4.64;100.00;98160.42;52431;1254;1017984;-76
2023/03/03 04:15:23;;;;;;;93.70;43.70;;;;;;;-4.61;100.00;98158.13;52419;1253;1054907;-77
2023/03/03 04:17:49;;;;;;;94.80;45.50;;;;;;;-4.61;100.00;98161.54;52439;1257;1016227;-76
2023/03/03 04:20:16;;;;;;;93.30;40.30;;;;;;;-4.58;100.00;98163.09;52450;1261;1057926;-77
2023/03/03 04:22:43;;;;;;;83.40;41.60;;;;;;;-4.52;100.00;98162.28;52431;1257;1016295;-76
2023/03/03 04:25:13;;;;;;;90.60;37.60;;;;;;;-4.55;100.00;98163.74;52519;1254;1074113;-76
2023/03/03 04:27:39;;;;;;;81.50;38.70;;;;;;;-4.55;100.00;98168.80;52472;1254;1015995;-76
2023/03/03 04:30:06;;;;;;;88.70;39.20;;;;;;;-4.57;100.00;98172.23;52517;1257;1018645;-76
2023/03/03 04:32:33;;;;;;;98.40;39.50;;;;;;;-4.58;100.00;98166.95;52538;1254;1073346;-76
2023/03/03 04:35:00;;;;;;;108.40;42.30;;;;;;;-4.64;100.00;98168.97;52525;1257;1016043;-76
2023/03/03 04:37:27;;;;;;;102.70;46.30;;;;;;;-4.72;100.00;98167.55;52523;1257;1070288;-76
2023/03/03 04:39:53;;;;;;;99.50;44.10;;;;;;;-4.74;100.00;98168.82;52515;1256;1016361;-76
2023/03/03 04:42:20;;;;;;;98.60;41.80;;;;;;;-4.69;100.00;98162.48;52517;1254;1053585;-76
2023/03/03 04:44:46;;;;;;;95.10;44.60;;;;;;;-4.70;100.00;98160.10;52526;1254;1016320;-76
2023/03/03 04:47:13;;;;;;;97.20;40.80;;;;;;;-4.70;100.00;98156.36;52486;1255;1060906;-76
2023/03/03 04:49:40;;;;;;;97.00;41.10;;;;;;;-4.72;100.00;98158.59;52559;1253;1016105;-76
2023/03/03 04:52:06;;;;;;;95.40;41.20;;;;;;;-4.71;100.00;98155.25;52522;1256;1075387;-76
2023/03/03 04:54:33;;;;;;;95.40;45.80;;;;;;;-4.76;100.00;98154.83;52534;1255;1016024;-76
2023/03/03 04:56:59;;;;;;;86.40;37.50;;;;;;;-4.81;100.00;98157.71;52500;1256;1071521;-76
2023/03/03 04:59:26;;;;;;;88.30;41.60;;;;;;;-4.85;100.00;98160.55;52534;1253;1016257;-76
2023/03/03 05:01:53;;;;;;;90.60;40.20;;;;;;;-4.85;100.00;98163.93;52422;1254;1071661;-76
2023/03/03 05:04:19;;;;;;;96.70;39.00;;;;;;;-4.89;100.00;98171.16;52424;1255;1016381;-76
2023/03/03 05:06:46;;;;;;;94.40;39.50;;;;;;;-4.95;100.00;98172.66;52422;1254;1053220;-76
2023/03/03 05:09:12;;;;;;;99.20;41.60;;;;;;;-5.03;100.00;98174.90;52471;1257;1016187;-76
2023/03/03 05:11:39;;;;;;;93.80;42.70;;;;;;;-5.04;100.00;98174.10;52747;1259;1061375;-77
2023/03/03 05:14:07;;;;;;;92.40;38.90;;;;;;;-5.01;100.00;98177.41;52423;1257;1016041;-77
2023/03/03 05:16:33;;;;;;;90.70;40.10;;;;;;;-4.91;100.00;98184.52;52416;1257;1075845;-77
2023/03/03 05:19:00;;;;;;;92.70;40.50;;;;;;;-4.83;100.00;98187.02;52459;1254;1016162;-77
2023/03/03 05:21:26;;;;;;;95.20;43.90;;;;;;;-4.73;100.00;98184.61;52490;1254;1069661;-76
2023/03/03 05:23:53;;;;;;;93.00;41.70;;;;;;;-4.67;100.00;98184.07;52482;1254;1015990;-76
2023/03/03 05:26:20;;;;;;;105.80;40.80;;;;;;;-4.76;100.00;98177.89;52630;1256;1073411;-77
2023/03/03 05:28:46;;;;;;;86.40;40.50;;;;;;;-4.81;100.00;98180.58;52497;1254;1016243;-77
2023/03/03 05:31:13;;;;;;;103.30;44.70;;;;;;;-4.85;100.00;98192.34;52452;1254;1051159;-77
2023/03/03 05:33:40;;;;;;;106.40;48.30;;;;;;;-4.89;100.00;98192.95;52525;1254;1016336;-77
2023/03/03 05:36:07;;;;;;;96.50;47.00;;;;;;;-4.90;100.00;98192.59;52468;1259;1058078;-77
2023/03/03 05:38:33;;;;;;;119.70;47.30;;;;;;;-4.89;100.00;98190.55;52513;1254;1016130;-77
2023/03/03 05:41:00;;;;;;;111.30;49.10;;;;;;;-4.84;100.00;98193.92;52621;1254;1075185;-77
2023/03/03 05:43:28;;;;;;;126.20;52.40;;;;;;;-4.82;100.00;98198.09;52513;1258;1016441;-77
2023/03/03 05:45:55;;;;;;;130.80;58.90;;;;;;;-4.83;100.00;98199.27;52526;1256;1069434;-77
2023/03/03 05:48:22;;;;;;;118.00;53.30;;;;;;;-4.78;100.00;98202.67;52518;1254;1016474;-77
2023/03/03 05:50:49;;;;;;;97.40;45.40;;;;;;;-4.75;100.00;98196.42;52493;1252;1071378;-77
2023/03/03 05:53:15;;;;;;;106.50;47.80;;;;;;;-4.77;100.00;98195.96;52518;1256;1016198;-77
2023/03/03 05:55:42;;;;;;;119.70;51.50;;;;;;;-4.81;100.00;98192.91;52475;1257;1053352;-77
2023/03/03 05:58:08;;;;;;;111.90;47.30;;;;;;;-4.83;100.00;98194.95;52547;1254;1016032;-77
2023/03/03 06:00:35;;;;;;;100.80;44.20;;;;;;;-4.78;100.00;98194.50;52516;1254;1058926;-78
2023/03/03 06:03:02;;;;;;;105.70;46.00;;;;;;;-4.72;100.00;98189.27;52424;1254;1016197;-77
2023/03/03 06:05:28;;;;;;;118.30;48.50;;;;;;;-4.72;100.00;98192.92;52514;1254;1075024;-77
2023/03/03 06:07:55;;;;;;;112.50;47.70;;;;;;;-4.68;100.00;98197.40;52454;1254;1015907;-77
2023/03/03 06:10:22;;;;;;;120.20;47.00;;;;;;;-4.63;100.00;98200.98;52438;1257;1069575;-77
2023/03/03 06:12:48;;;;;;;95.10;45.70;;;;;;;-4.59;100.00;98210.48;52530;1257;1016473;-77
2023/03/03 06:15:15;;;;;;;102.60;45.30;;;;;;;-4.53;100.00;98216.11;52475;1254;1071719;-77
2023/03/03 06:17:41;;;;;;;106.80;43.40;;;;;;;-4.45;100.00;98219.90;52468;1254;1015957;-77
2023/03/03 06:20:09;;;;;;;103.20;47.50;;;;;;;-4.39;100.00;98224.35;52501;1254;1051215;-77
2023/03/03 06:22:35;;;;;;;100.30;47.10;;;;;;;-4.27;100.00;98229.95;52467;1258;1016364;-77
2023/03/03 06:25:02;;;;;;;110.40;44.60;;;;;;;-4.20;100.00;98233.43;52496;1254;1059831;-77
2023/03/03 06:27:29;;;;;;;95.10;43.10;;;;;;;-4.10;100.00;98229.39;52440;1257;1015983;-77
2023/03/03 06:29:56;;;;;;;96.00;41.60;;;;;;;-4.10;100.00;98232.54;52467;1257;1074884;-77
2023/03/03 06:32:22;;;;;;;110.80;47.00;;;;;;;-3.99;100.00;98234.27;52475;1254;1016376;-77
2023/03/03 06:34:49;;;;;;;94.70;41.90;;;;;;;-3.83;100.00;98242.73;52504;1254;1071939;-77
2023/03/03 06:37:15;;;;;;;100.80;44.50;;;;;;;-3.76;100.00;98245.73;52523;1257;1015956;-77
2023/03/03 06:39:42;;;;;;;110.60;49.40;;;;;;;-3.72;100.00;98247.65;52511;1259;1070695;-77
2023/03/03 06:42:09;;;;;;;116.40;49.40;;;;;;;-3.56;100.00;98246.27;52484;1254;1016398;-78
2023/03/03 06:44:36;;;;;;;103.70;48.90;;;;;;;-3.47;100.00;98255.36;52459;1260;1051024;-77
2023/03/03 06:47:02;;;;;;;123.50;56.80;;;;;;;-3.34;100.00;98268.72;52478;1254;1016312;-78
2023/03/03 06:49:29;;;;;;;139.90;63.40;;;;;;;-3.09;100.00;98269.91;52495;1254;1058225;-78
2023/03/03 06:51:57;;;;;;;120.30;55.10;;;;;;;-2.87;100.00;98272.80;52473;1257;1016616;-77
2023/03/03 06:54:27;;;;;;;113.50;49.90;;;;;;;-2.59;100.00;98272.48;52490;1257;1075295;-77
2023/03/03 06:56:58;;;;;;;112.60;54.00;;;;;;;-2.42;100.00;98277.37;52497;1254;1075018;-77
2023/03/03 06:59:25;;;;;;;99.70;50.40;;;;;;;-2.34;100.00;98276.06;52593;1259;1072904;-78
2023/03/03 07:01:52;;;;;;;104.80;50.80;;;;;;;-2.28;100.00;98277.17;52554;1254;1016217;-77
2023/03/03 07:04:30;;;;;;;108.80;53.50;;;;;;;-2.25;100.00;98273.94;52618;1257;1072248;-77
2023/03/03 07:07:19;;;;;;;109.70;52.80;;;;;;;-2.17;100.00;98272.94;52622;1254;1070640;-77
2023/03/03 07:09:51;;;;;;;98.50;49.80;;;;;;;-2.02;100.00;98276.77;52590;1254;1068636;-77
2023/03/03 07:12:21;;;;;;;118.10;52.80;;;;;;;-2.06;100.00;98275.77;52677;1254;1072168;-77
2023/03/03 07:14:54;;;;;;;95.20;49.70;;;;;;;-2.01;100.00;98277.88;52752;1253;1015768;-77
2023/03/03 07:17:23;;;;;;;98.10;50.60;;;;;;;-1.94;100.00;98280.14;52669;1258;1069811;-77
2023/03/03 07:19:50;;;;;;;107.20;53.40;;;;;;;-1.87;100.00;98285.49;52630;1254;1015584;-77
2023/03/03 07:22:18;;;;;;;116.50;56.80;;;;;;;-1.81;100.00;98280.67;52685;1254;1020060;-77
2023/03/03 07:24:47;;;;;;;122.30;58.10;;;;;;;-1.76;100.00;98279.98;52622;1254;1069836;-78
2023/03/03 07:27:24;;;;;;;124.20;59.70;;;;;;;-1.62;100.00;98277.28;52536;1254;1015594;-77
2023/03/03 07:29:53;;;;;;;114.40;57.20;;;;;;;-1.47;100.00;98278.15;52634;1256;1074579;-77
2023/03/03 07:32:40;;;;;;;128.30;67.60;;;;;;;-1.29;100.00;98278.35;53136;1256;1015828;-77
2023/03/03 07:35:39;;;;;;;250.40;118.40;;;;;;;-1.08;100.00;98268.21;53995;1254;1052080;-77
2023/03/03 07:38:34;;;;;;;166.40;85.70;;;;;;;-1.09;100.00;98269.02;53935;1254;1050987;-78
2023/03/03 07:41:02;;;;;;;178.30;89.00;;;;;;;-1.18;100.00;98266.54;53899;1256;1051378;-78
2023/03/03 07:43:32;;;;;;;220.80;105.30;;;;;;;-1.25;100.00;98263.52;53853;1257;1016130;-78
2023/03/03 07:46:00;;;;;;;187.40;89.00;;;;;;;-1.18;100.00;98262.94;53911;1257;1016621;-77
2023/03/03 07:48:41;;;;;;;137.30;66.40;;;;;;;-1.00;100.00;98261.09;53920;1254;1016500;-78
2023/03/03 07:51:21;;;;;;;182.70;84.70;;;;;;;-0.85;100.00;98260.64;53682;1254;1058469;-77
2023/03/03 07:53:48;;;;;;;173.70;83.20;;;;;;;-0.80;100.00;98254.83;52605;1256;1058930;-77
2023/03/03 07:56:33;;;;;;;148.20;63.90;;;;;;;-0.64;100.00;98250.52;52826;1254;1018183;-77
2023/03/03 07:59:02;;;;;;;134.40;63.70;;;;;;;-0.64;100.00;98242.58;52638;1254;1065134;-77
2023/03/03 08:01:39;;;;;;;123.40;58.80;;;;;;;-0.72;100.00;98235.56;52639;1254;1016522;-78
2023/03/03 08:04:21;;;;;;;110.50;54.20;;;;;;;-0.64;100.00;98227.88;52551;1254;1075309;-78
2023/03/03 08:06:50;;;;;;;114.30;57.70;;;;;;;-0.48;100.00;98219.29;52518;1254;1075894;-78
2023/03/03 08:09:16;;;;;;;104.90;50.20;;;;;;;-0.35;100.00;98207.13;52545;1254;1016455;-78
2023/03/03 08:12:05;;;;;;;96.10;50.10;;;;;;;-0.15;100.00;98204.99;52506;1254;1016669;-77
2023/03/03 08:14:36;;;;;;;101.70;52.00;;;;;;;-0.10;100.00;98198.34;52530;1257;1072484;-77
2023/03/03 08:17:20;;;;;;;91.90;47.90;;;;;;;0.12;100.00;98196.95;53993;1257;1071168;-78
2023/03/03 08:19:47;;;;;;;98.80;50.40;;;;;;;0.20;100.00;98203.58;53933;1259;1069950;-77
2023/03/03 08:22:15;;;;;;;91.80;49.40;;;;;;;0.65;99.24;98211.38;54010;1256;1015851;-75
2023/03/03 08:24:42;;;;;;;93.10;44.30;;;;;;;1.32;99.07;98204.41;53937;1254;1071733;-75
2023/03/03 08:27:08;;;;;;;79.80;41.10;;;;;;;1.91;99.17;98200.00;53986;1254;1015494;-76
2023/03/03 08:29:35;;;;;;;85.30;49.00;;;;;;;2.93;97.21;98195.85;53994;1254;1051631;-76
2023/03/03 08:32:01;;;;;;;87.00;49.50;;;;;;;3.77;86.40;98207.86;53927;1256;1015835;-76
2023/03/03 08:34:28;;;;;;;90.60;52.20;;;;;;;5.30;83.07;98204.77;53578;1253;1058673;-76
2023/03/03 08:36:57;;;;;;;93.80;54.00;;;;;;;6.71;89.33;98190.05;52542;1254;1016288;-75
2023/03/03 08:39:23;;;;;;;93.20;55.20;;;;;;;7.03;86.06;98195.66;52579;1254;1072871;-76
2023/03/03 08:41:50;;;;;;;129.20;65.30;;;;;;;8.15;85.51;98187.21;52535;1254;1016607;-76
2023/03/03 08:44:18;;;;;;;68.50;45.40;;;;;;;8.79;78.87;98193.92;52476;1254;1071385;-76
2023/03/03 08:46:45;;;;;;;70.60;44.50;;;;;;;9.22;72.19;98193.70;52519;1254;1015962;-77
2023/03/03 08:49:12;;;;;;;93.80;66.00;;;;;;;10.15;66.41;98193.79;52453;1258;1071036;-76
2023/03/03 08:51:39;;;;;;;83.50;56.00;;;;;;;10.70;60.48;98200.69;52564;1254;1016492;-76
2023/03/03 08:54:06;;;;;;;67.40;45.10;;;;;;;10.98;57.09;98199.77;52487;1259;1051526;-76
2023/03/03 08:56:33;;;;;;;75.60;53.20;;;;;;;12.13;63.01;98199.86;52450;1257;1016125;-76
2023/03/03 08:58:59;;;;;;;60.40;44.40;;;;;;;12.99;59.23;98204.70;52513;1254;1060757;-76
2023/03/03 09:01:26;;;;;;;67.60;44.30;;;;;;;12.84;52.88;98199.54;52977;1254;1015961;-76
2023/03/03 09:03:53;;;;;;;61.70;41.80;;;;;;;12.09;50.24;98201.52;52550;1254;1072786;-76
2023/03/03 09:06:19;;;;;;;61.20;42.10;;;;;;;11.07;54.49;98199.90;52469;1257;1015930;-76
2023/03/03 09:08:46;;;;;;;59.30;40.70;;;;;;;10.63;60.34;98197.52;52567;1254;1071628;-76
2023/03/03 09:11:12;;;;;;;63.50;40.90;;;;;;;9.32;58.03;98193.30;52562;1254;1016256;-76
2023/03/03 09:13:39;;;;;;;75.40;46.80;;;;;;;8.36;60.54;98191.70;52503;1254;1073044;-76
2023/03/03 09:16:13;;;;;;;84.40;54.40;;;;;;;7.48;61.91;98187.00;52658;1256;1016145;-76
2023/03/03 09:18:40;;;;;;;91.50;52.10;;;;;;;6.69;63.61;98197.42;52492;1254;1051805;-76
2023/03/03 09:21:25;;;;;;;93.40;53.60;;;;;;;6.39;65.73;98209.70;52593;1257;1016317;-76
2023/03/03 09:23:58;;;;;;;83.80;45.80;;;;;;;6.11;67.33;98207.80;52740;1257;1059051;-76
2023/03/03 09:26:38;;;;;;;72.50;43.20;;;;;;;5.98;67.97;98213.48;52556;1254;1058227;-75
2023/03/03 09:29:15;;;;;;;72.50;42.10;;;;;;;5.59;68.40;98218.75;52551;1254;1060839;-75
2023/03/03 09:31:50;;;;;;;76.40;40.60;;;;;;;5.68;68.88;98215.36;52644;1257;1059156;-76
2023/03/03 09:34:44;;;;;;;83.40;41.90;;;;;;;5.79;69.34;98216.13;52547;1254;1058232;-75
2023/03/03 09:37:31;;;;;;;78.50;43.50;;;;;;;5.76;69.47;98220.02;52630;1254;1058630;-75
2023/03/03 09:39:57;;;;;;;76.90;42.70;;;;;;;5.28;70.66;98228.83;52698;1254;1058793;-75
2023/03/03 09:42:43;;;;;;;90.30;50.50;;;;;;;4.88;72.52;98232.95;52544;1254;1016025;-73
2023/03/03 09:45:19;;;;;;;87.10;48.70;;;;;;;4.92;73.60;98228.09;52488;1257;1075513;-74
2023/03/03 09:47:55;;;;;;;117.90;66.00;;;;;;;5.04;73.73;98225.54;53068;1254;1073558;-76
2023/03/03 09:50:26;;;;;;;103.10;55.20;;;;;;;4.81;74.77;98220.36;52534;1254;1073088;-74
2023/03/03 09:53:23;;;;;;;135.60;76.10;;;;;;;4.70;75.29;98214.85;52589;1257;1073794;-74
2023/03/03 09:56:11;;;;;;;162.30;105.40;;;;;;;4.55;76.35;98223.98;52510;1257;1075998;-76
2023/03/03 09:58:59;;;;;;;126.30;68.10;;;;;;;4.32;78.26;98215.28;52518;1259;1071817;-77
2023/03/03 10:02:00;;;;;;;120.80;70.20;;;;;;;4.31;79.69;98217.98;52662;1254;1075607;-77
2023/03/03 10:04:41;;;;;;;143.20;80.60;;;;;;;4.40;80.11;98223.73;52469;1254;1073192;-74
2023/03/03 10:07:36;;;;;;;127.90;75.00;;;;;;;4.41;80.39;98221.97;52487;1254;1072040;-77
2023/03/03 10:10:11;;;;;;;123.90;66.80;;;;;;;4.26;80.96;98216.66;52527;1256;1071899;-76
2023/03/03 10:12:41;;;;;;;127.40;71.70;;;;;;;3.90;83.19;98211.04;52487;1254;1073527;-77
2023/03/03 10:15:16;;;;;;;106.30;61.00;;;;;;;3.96;82.96;98206.20;52464;1254;1016267;-77
2023/03/03 10:17:50;;;;;;;120.40;68.50;;;;;;;4.06;82.98;98211.30;52508;1254;1075516;-76
2023/03/03 10:20:32;;;;;;;139.80;78.10;;;;;;;3.72;85.09;98209.00;52525;1254;1073177;-76
2023/03/03 10:23:16;;;;;;;137.80;73.80;;;;;;;3.75;85.46;98210.20;52549;1254;1072770;-76
2023/03/03 10:25:53;;;;;;;121.40;67.20;;;;;;;3.72;85.06;98207.41;52476;1254;1075097;-76
2023/03/03 10:28:52;;;;;;;122.00;64.00;;;;;;;3.64;86.49;98205.85;52454;1257;1071728;-77
2023/03/03 10:31:41;;;;;;;141.00;67.60;;;;;;;3.41;88.20;98208.13;52548;1254;1075531;-77
2023/03/03 10:34:27;;;;;;;138.90;73.30;;;;;;;3.61;87.08;98203.65;52591;1254;1075763;-77
2023/03/03 10:37:15;;;;;;;139.90;72.00;;;;;;;3.42;88.56;98207.45;52490;1256;1073079;-77
2023/03/03 10:39:48;;;;;;;134.30;66.20;;;;;;;3.67;87.19;98202.41;52541;1254;1071620;-77
2023/03/03 10:42:40;;;;;;;136.60;66.70;;;;;;;3.71;87.30;98208.91;52581;1254;1073191;-78
2023/03/03 10:45:28;;;;;;;138.00;67.90;;;;;;;3.64;87.15;98205.77;52554;1256;1075037;-78
2023/03/03 10:47:57;;;;;;;217.80;116.60;;;;;;;3.31;88.44;98204.23;52570;1254;1075315;-76
2023/03/03 10:50:41;;;;;;;210.70;135.20;;;;;;;3.12;90.31;98213.08;52639;1254;1016269;-76
2023/03/03 10:53:38;;;;;;;162.40;97.50;;;;;;;3.02;91.56;98217.73;52604;1257;1072575;-76
2023/03/03 10:56:22;;;;;;;199.00;120.10;;;;;;;3.15;90.66;98216.13;52571;1256;1075533;-76
2023/03/03 10:58:52;;;;;;;145.10;76.60;;;;;;;3.24;89.47;98223.42;52470;1257;1073457;-76
2023/03/03 11:01:44;;;;;;;151.50;78.50;;;;;;;2.90;91.35;98225.94;52661;1254;1016155;-76
2023/03/03 11:04:21;;;;;;;178.10;102.00;;;;;;;2.75;93.49;98230.80;52537;1259;1072668;-76
2023/03/03 11:07:17;;;;;;;169.80;90.00;;;;;;;2.73;93.79;98228.39;52506;1259;1073111;-76
2023/03/03 11:10:00;;;;;;;158.20;84.50;;;;;;;2.50;94.98;98226.27;52528;1257;1073362;-76